Time;durP1;ratioP1;P1;durP2;ratioP2;P2;SDS_P1;SDS_P2;PMS_P1;PMS_P2;Temp;Humidity;BMP_temperature;BMP_pressure;BME280_temperature;BME280_humidity;BME280_pressure;Samples;Min_cycle;Max_cycle;Signal;HPM_P1;HPM_P2
2023/10/29 00:01:50;;;;;;;6.87;3.60;;;12.00;15.10;;;;;;4980996;28;20491;-65
2023/10/29 00:04:16;;;;;;;7.67;3.73;;;12.00;15.20;;;;;;4988171;28;20997;-65
2023/10/29 00:06:43;;;;;;;7.33;3.43;;;12.00;15.20;;;;;;4986749;28;20464;-66
2023/10/29 00:09:11;;;;;;;8.43;3.70;;;12.00;15.30;;;;;;4989732;28;20460;-66
2023/10/29 00:11:38;;;;;;;6.50;3.67;;;12.00;15.30;;;;;;4987518;28;21036;-67
2023/10/29 00:14:05;;;;;;;7.67;3.20;;;11.90;15.40;;;;;;4986533;28;20549;-66
2023/10/29 00:16:32;;;;;;;9.37;3.77;;;12.00;15.50;;;;;;4986404;28;20469;-66
2023/10/29 00:18:59;;;;;;;6.73;3.03;;;12.00;15.50;;;;;;4987135;28;20465;-66
2023/10/29 00:21:25;;;;;;;9.93;4.23;;;12.00;15.60;;;;;;4986836;28;20864;-66
2023/10/29 00:23:52;;;;;;;6.83;3.53;;;12.00;15.40;;;;;;4985552;28;20475;-66
2023/10/29 00:26:20;;;;;;;8.57;3.03;;;12.00;15.50;;;;;;4984804;28;20464;-66
2023/10/29 00:28:47;;;;;;;5.40;2.47;;;12.00;15.50;;;;;;4983799;28;20466;-66
2023/10/29 00:31:14;;;;;;;6.57;3.37;;;12.00;15.50;;;;;;4982410;28;20477;-65
2023/10/29 00:33:40;;;;;;;6.43;2.77;;;12.00;15.40;;;;;;4987715;28;20467;-64
2023/10/29 00:36:09;;;;;;;6.97;2.60;;;12.00;15.50;;;;;;4989223;28;20833;-65
2023/10/29 00:38:36;;;;;;;7.10;3.00;;;12.00;15.40;;;;;;4988547;28;20468;-65
2023/10/29 00:41:03;;;;;;;8.23;3.30;;;12.00;15.30;;;;;;4984589;28;20484;-65
2023/10/29 00:46:07;;;;;;;8.97;5.10;;;11.90;15.40;;;;;;4988319;28;20477;-65
2023/10/29 00:48:34;;;;;;;11.20;5.90;;;12.00;15.10;;;;;;4986151;28;20461;-66
2023/10/29 00:51:02;;;;;;;7.40;2.53;;;12.00;15.20;;;;;;4986920;28;20475;-65
2023/10/29 00:55:58;;;;;;;5.23;2.20;;;11.90;14.70;;;;;;5004113;28;20489;-68
2023/10/29 00:58:25;;;;;;;4.90;2.13;;;11.90;14.80;;;;;;4998361;28;20475;-67
2023/10/29 01:00:53;;;;;;;7.43;2.07;;;11.90;14.70;;;;;;5005033;28;20494;-67
2023/10/29 01:03:20;;;;;;;5.73;2.13;;;11.90;14.60;;;;;;5005692;28;20462;-67
2023/10/29 01:05:48;;;;;;;5.20;1.73;;;11.90;14.70;;;;;;5005522;28;20900;-68
2023/10/29 01:08:15;;;;;;;4.83;1.50;;;11.90;14.60;;;;;;5004783;28;20467;-68
2023/10/29 01:10:42;;;;;;;6.50;3.00;;;11.90;14.60;;;;;;5007411;28;20467;-68
2023/10/29 01:13:08;;;;;;;6.13;2.23;;;11.80;14.90;;;;;;5007737;28;20833;-68
2023/10/29 01:15:35;;;;;;;6.43;2.20;;;11.80;15.00;;;;;;5003125;28;20492;-68
2023/10/29 01:18:03;;;;;;;6.30;2.13;;;11.70;15.10;;;;;;5007931;28;21147;-68
2023/10/29 01:20:30;;;;;;;4.17;1.97;;;11.70;15.20;;;;;;5006549;28;20487;-68
2023/10/29 01:22:57;;;;;;;5.63;2.00;;;11.70;15.30;;;;;;5001023;28;20455;-68
2023/10/29 01:25:24;;;;;;;4.87;1.90;;;11.60;15.30;;;;;;5005577;28;20484;-68
2023/10/29 01:27:51;;;;;;;4.80;1.77;;;11.60;15.50;;;;;;5002515;28;20463;-68
2023/10/29 01:30:18;;;;;;;4.97;1.73;;;11.60;15.60;;;;;;5004464;28;20456;-68
2023/10/29 01:32:44;;;;;;;4.37;1.73;;;11.50;16.30;;;;;;5005991;28;20877;-68
2023/10/29 01:35:13;;;;;;;4.80;1.80;;;11.50;15.70;;;;;;5004442;28;20484;-68
2023/10/29 01:37:39;;;;;;;7.20;2.20;;;11.50;15.80;;;;;;5002682;28;20464;-68
2023/10/29 01:40:07;;;;;;;7.23;2.30;;;11.50;15.80;;;;;;5003890;28;21362;-68
2023/10/29 01:42:34;;;;;;;4.93;2.03;;;11.60;15.80;;;;;;5007536;28;20472;-68
2023/10/29 01:45:02;;;;;;;6.37;2.67;;;11.50;15.80;;;;;;5008016;28;20479;-68
2023/10/29 01:47:30;;;;;;;5.10;2.23;;;11.50;15.80;;;;;;5003180;28;20460;-68
2023/10/29 01:49:56;;;;;;;12.13;2.50;;;11.40;15.70;;;;;;5006971;28;20461;-68
2023/10/29 01:52:25;;;;;;;5.77;2.23;;;11.40;15.90;;;;;;5004515;28;20506;-68
2023/10/29 01:54:51;;;;;;;5.03;2.27;;;11.40;16.00;;;;;;5005498;28;20567;-68
2023/10/29 01:57:18;;;;;;;5.57;2.03;;;11.30;16.20;;;;;;5000288;28;20460;-68
2023/10/29 01:59:45;;;;;;;5.27;2.80;;;11.30;16.20;;;;;;5005315;28;20467;-68
2023/10/29 02:02:11;;;;;;;5.23;2.30;;;11.30;16.20;;;;;;5004555;28;20472;-68
2023/10/29 02:04:38;;;;;;;5.60;2.17;;;11.20;16.30;;;;;;5003128;28;20499;-68
2023/10/29 02:07:05;;;;;;;4.50;2.30;;;11.10;16.60;;;;;;5003151;28;20471;-67
2023/10/29 02:09:33;;;;;;;4.73;2.30;;;11.10;16.60;;;;;;5004720;28;20479;-68
2023/10/29 02:11:59;;;;;;;4.67;2.40;;;11.10;16.80;;;;;;5004108;28;20456;-68
2023/10/29 02:14:28;;;;;;;6.23;3.27;;;11.00;16.90;;;;;;5000729;28;20487;-68
2023/10/29 02:16:55;;;;;;;7.70;2.70;;;11.00;17.10;;;;;;5006125;28;20464;-68
2023/10/29 02:19:22;;;;;;;6.53;2.60;;;11.00;17.20;;;;;;5006726;28;20820;-68
2023/10/29 02:21:49;;;;;;;7.77;2.67;;;10.90;17.40;;;;;;5003594;28;20860;-68
2023/10/29 02:24:17;;;;;;;7.93;2.80;;;10.90;17.50;;;;;;5003758;28;20480;-68
2023/10/29 02:26:43;;;;;;;5.70;2.90;;;10.90;17.90;;;;;;5002808;28;20948;-68
2023/10/29 02:29:10;;;;;;;6.87;2.33;;;10.80;17.80;;;;;;5004383;28;20455;-68
2023/10/29 02:31:37;;;;;;;8.13;3.20;;;10.80;18.00;;;;;;5002740;28;20921;-68
2023/10/29 02:34:03;;;;;;;8.83;2.90;;;10.80;18.40;;;;;;5003518;28;20459;-68
2023/10/29 02:36:30;;;;;;;4.70;2.57;;;10.70;18.40;;;;;;5006862;28;20459;-68
2023/10/29 02:38:57;;;;;;;6.10;2.00;;;10.70;18.50;;;;;;5006092;28;20456;-70
2023/10/29 02:41:26;;;;;;;7.40;2.60;;;10.70;18.40;;;;;;5004073;28;20570;-68
2023/10/29 02:43:54;;;;;;;7.43;2.70;;;10.70;18.60;;;;;;5007555;28;20494;-68
2023/10/29 02:46:21;;;;;;;5.20;2.10;;;10.70;18.70;;;;;;5006799;28;20978;-68
2023/10/29 02:48:48;;;;;;;5.20;2.20;;;10.70;18.80;;;;;;5009233;28;20459;-68
2023/10/29 02:51:15;;;;;;;5.57;2.83;;;10.70;18.60;;;;;;5008117;28;20471;-68
2023/10/29 02:53:41;;;;;;;6.53;2.67;;;10.70;18.60;;;;;;5007137;28;20951;-68
2023/10/29 02:56:08;;;;;;;7.30;2.17;;;10.60;18.70;;;;;;5006600;28;20571;-68
2023/10/29 02:58:36;;;;;;;4.80;2.33;;;10.60;18.60;;;;;;5012029;28;20459;-68
2023/10/29 03:01:05;;;;;;;6.20;2.50;;;10.60;18.60;;;;;;5012082;28;20480;-68
2023/10/29 03:03:32;;;;;;;5.47;2.33;;;10.60;18.60;;;;;;5007743;28;20506;-68
2023/10/29 03:05:59;;;;;;;5.13;2.13;;;10.60;18.70;;;;;;5004982;28;20530;-67
2023/10/29 03:08:25;;;;;;;5.73;2.53;;;10.60;18.70;;;;;;5006269;28;20475;-69
2023/10/29 03:10:52;;;;;;;10.57;2.77;;;10.50;18.70;;;;;;5008256;28;20933;-68
2023/10/29 03:13:19;;;;;;;6.00;2.73;;;10.50;18.70;;;;;;5010195;28;20468;-68
2023/10/29 03:15:47;;;;;;;4.67;2.23;;;10.50;18.70;;;;;;5006685;28;20525;-68
2023/10/29 03:18:14;;;;;;;4.83;2.30;;;10.50;18.60;;;;;;5008184;28;20837;-68
2023/10/29 03:20:41;;;;;;;6.67;2.40;;;10.50;18.70;;;;;;5009096;28;20488;-68
2023/10/29 03:23:08;;;;;;;10.07;2.70;;;10.40;18.90;;;;;;5008372;28;20464;-68
2023/10/29 03:25:35;;;;;;;4.63;1.97;;;10.40;18.90;;;;;;5005897;28;20475;-68
2023/10/29 03:28:02;;;;;;;4.70;2.33;;;10.30;18.90;;;;;;5007570;28;20813;-68
2023/10/29 03:30:28;;;;;;;4.93;2.20;;;10.30;18.80;;;;;;5006173;28;20460;-68
2023/10/29 03:32:57;;;;;;;8.50;2.40;;;10.40;18.60;;;;;;5009135;28;20948;-68
2023/10/29 03:35:26;;;;;;;5.67;2.40;;;10.30;18.50;;;;;;5004749;28;20480;-68
2023/10/29 03:37:52;;;;;;;6.90;2.70;;;10.30;18.50;;;;;;5007415;28;20468;-68
2023/10/29 03:40:19;;;;;;;6.30;2.10;;;10.30;18.40;;;;;;5008558;28;20474;-68
2023/10/29 03:42:46;;;;;;;5.27;1.80;;;10.30;18.70;;;;;;5009625;28;21007;-68
2023/10/29 03:45:13;;;;;;;6.93;2.43;;;10.20;19.10;;;;;;5003963;28;20534;-68
2023/10/29 03:47:42;;;;;;;4.97;2.30;;;10.10;19.30;;;;;;5007445;28;20459;-68
2023/10/29 03:50:10;;;;;;;7.13;2.50;;;10.10;19.30;;;;;;5006490;28;20457;-68
2023/10/29 03:52:37;;;;;;;4.60;2.30;;;10.00;19.30;;;;;;5006686;28;20475;-68
2023/10/29 03:55:03;;;;;;;4.33;1.80;;;10.00;19.20;;;;;;5007102;28;20483;-68
2023/10/29 03:57:30;;;;;;;6.93;2.90;;;10.00;19.30;;;;;;5006859;28;20467;-68
2023/10/29 03:59:57;;;;;;;6.60;2.67;;;9.90;19.70;;;;;;5006270;28;20460;-68
2023/10/29 04:02:23;;;;;;;5.00;2.00;;;9.80;19.90;;;;;;5005130;28;20483;-68
2023/10/29 04:04:50;;;;;;;4.83;2.40;;;9.80;20.10;;;;;;5005795;28;20487;-68
2023/10/29 04:07:18;;;;;;;10.30;2.60;;;9.80;20.10;;;;;;5006871;28;20486;-68
2023/10/29 04:09:45;;;;;;;5.77;3.00;;;9.70;20.40;;;;;;5005879;28;20486;-68
2023/10/29 04:12:12;;;;;;;7.80;2.90;;;9.70;20.30;;;;;;5007921;28;20518;-68
2023/10/29 04:14:42;;;;;;;6.30;2.67;;;9.70;20.50;;;;;;5006562;28;20494;-68
2023/10/29 04:17:09;;;;;;;5.87;2.70;;;9.70;20.60;;;;;;5006770;28;20463;-68
2023/10/29 04:19:36;;;;;;;5.63;3.07;;;9.70;20.40;;;;;;5008515;28;20471;-68
2023/10/29 04:22:03;;;;;;;6.33;2.37;;;9.60;20.10;;;;;;5007695;28;20480;-68
2023/10/29 04:24:31;;;;;;;5.43;2.00;;;9.60;20.00;;;;;;5003538;28;20483;-68
2023/10/29 04:26:57;;;;;;;4.90;2.30;;;9.60;20.00;;;;;;5007484;28;20464;-68
2023/10/29 04:29:24;;;;;;;6.43;2.93;;;9.50;19.80;;;;;;5005849;28;20477;-68
2023/10/29 04:31:51;;;;;;;6.20;2.50;;;9.50;19.80;;;;;;5004771;28;20984;-68
2023/10/29 04:34:17;;;;;;;7.53;3.00;;;9.50;19.60;;;;;;5005487;28;20472;-68
2023/10/29 04:36:48;;;;;;;5.73;2.97;;;9.40;19.70;;;;;;5003805;28;20468;-68
2023/10/29 04:39:15;;;;;;;5.93;2.37;;;9.30;19.70;;;;;;5004847;28;20466;-68
2023/10/29 04:41:43;;;;;;;6.10;2.63;;;9.30;19.90;;;;;;5000464;28;21025;-68
2023/10/29 04:44:10;;;;;;;5.93;2.90;;;9.30;19.70;;;;;;5004522;28;20484;-68
2023/10/29 04:46:36;;;;;;;7.80;2.90;;;9.30;20.00;;;;;;5006837;28;20463;-68
2023/10/29 04:49:03;;;;;;;4.93;2.63;;;9.30;20.40;;;;;;5005453;28;20464;-68
2023/10/29 04:51:30;;;;;;;7.00;2.73;;;9.30;20.50;;;;;;5008430;28;20563;-68
2023/10/29 04:53:57;;;;;;;5.70;2.77;;;9.30;20.60;;;;;;5004457;28;20530;-68
2023/10/29 04:56:24;;;;;;;4.87;2.50;;;9.30;20.60;;;;;;5005174;28;20478;-68
2023/10/29 04:58:52;;;;;;;4.63;2.40;;;9.20;20.50;;;;;;5004419;28;20460;-68
2023/10/29 05:01:18;;;;;;;4.83;2.20;;;9.20;20.50;;;;;;5002266;28;20515;-68
2023/10/29 05:03:45;;;;;;;4.87;2.40;;;9.20;20.40;;;;;;5000913;28;20460;-68
2023/10/29 05:06:18;;;;;;;4.70;1.70;;;9.20;20.20;;;;;;5007014;28;20487;-68
2023/10/29 05:08:45;;;;;;;4.90;1.97;;;9.20;20.30;;;;;;5006204;28;20463;-68
2023/10/29 05:11:12;;;;;;;5.33;2.23;;;9.20;20.20;;;;;;5001830;28;20983;-68
2023/10/29 05:13:39;;;;;;;6.53;2.87;;;9.20;20.40;;;;;;5004792;28;20491;-67
2023/10/29 05:16:07;;;;;;;6.47;2.00;;;9.20;20.30;;;;;;5005754;28;20479;-67
2023/10/29 05:18:34;;;;;;;5.77;2.27;;;9.20;20.50;;;;;;5005879;28;20467;-68
2023/10/29 05:21:00;;;;;;;5.50;2.40;;;9.20;20.60;;;;;;5007100;28;20472;-68
2023/10/29 05:23:27;;;;;;;4.80;2.40;;;9.20;20.80;;;;;;5006231;28;20487;-68
2023/10/29 05:25:54;;;;;;;4.97;2.47;;;9.20;20.90;;;;;;5001292;28;20484;-68
2023/10/29 05:28:22;;;;;;;6.83;2.57;;;9.20;21.10;;;;;;5006264;28;20467;-67
2023/10/29 05:30:49;;;;;;;7.80;2.37;;;9.20;21.60;;;;;;5004593;28;21251;-67
2023/10/29 05:33:17;;;;;;;5.77;2.50;;;9.10;21.70;;;;;;5006092;28;20471;-67
2023/10/29 05:35:43;;;;;;;4.60;2.40;;;9.10;21.50;;;;;;5002025;28;20482;-67
2023/10/29 05:38:10;;;;;;;6.80;2.40;;;9.10;21.70;;;;;;5005617;28;20443;-68
2023/10/29 05:40:37;;;;;;;6.00;2.40;;;9.10;21.80;;;;;;5007045;28;20476;-68
2023/10/29 05:43:04;;;;;;;7.33;2.40;;;9.00;22.10;;;;;;5002271;28;20872;-67
2023/10/29 05:45:30;;;;;;;5.87;2.47;;;9.00;21.90;;;;;;5006413;28;20479;-67
2023/10/29 05:47:58;;;;;;;5.73;2.50;;;9.00;21.70;;;;;;5006297;28;20992;-67
2023/10/29 05:50:26;;;;;;;5.23;2.20;;;9.00;21.60;;;;;;5005903;28;21023;-68
2023/10/29 05:52:53;;;;;;;5.17;2.40;;;9.00;21.60;;;;;;5004793;28;20456;-68
2023/10/29 05:55:22;;;;;;;8.10;3.03;;;9.00;21.50;;;;;;5003717;28;20495;-67
2023/10/29 05:57:49;;;;;;;4.90;2.70;;;9.00;21.80;;;;;;5011075;28;20464;-67
2023/10/29 06:00:17;;;;;;;5.60;2.20;;;9.00;21.60;;;;;;5008445;28;20583;-67
2023/10/29 06:02:44;;;;;;;4.90;2.10;;;9.00;21.60;;;;;;4999642;28;20488;-67
2023/10/29 06:05:10;;;;;;;4.60;2.07;;;9.00;21.60;;;;;;5001394;28;20498;-67
2023/10/29 06:07:43;;;;;;;4.60;1.80;;;9.00;22.20;;;;;;5005319;28;20470;-68
2023/10/29 06:10:11;;;;;;;7.47;1.93;;;9.00;21.70;;;;;;5006574;28;20456;-68
2023/10/29 06:12:38;;;;;;;8.80;3.97;;;9.00;21.70;;;;;;5004988;28;20467;-68
2023/10/29 06:15:05;;;;;;;5.57;2.27;;;9.00;21.60;;;;;;5009275;28;20487;-68
2023/10/29 06:17:32;;;;;;;6.10;3.10;;;9.10;21.50;;;;;;5006994;28;20470;-68
2023/10/29 06:19:59;;;;;;;5.60;2.97;;;9.10;21.40;;;;;;5009492;28;20477;-68
2023/10/29 06:22:26;;;;;;;6.63;2.40;;;9.10;21.60;;;;;;5008148;28;20479;-68
2023/10/29 06:24:54;;;;;;;5.10;2.33;;;9.10;21.30;;;;;;5006432;28;20480;-68
2023/10/29 06:27:21;;;;;;;5.00;2.70;;;9.20;21.40;;;;;;5008296;28;20459;-68
2023/10/29 06:29:48;;;;;;;5.00;2.10;;;9.20;21.20;;;;;;5009497;28;20546;-68
2023/10/29 06:32:15;;;;;;;5.80;2.63;;;9.20;21.30;;;;;;5000572;28;20472;-68
2023/10/29 06:34:41;;;;;;;6.10;2.70;;;9.20;21.30;;;;;;5008844;28;20841;-68
2023/10/29 06:37:08;;;;;;;6.50;2.30;;;9.20;21.10;;;;;;5006216;28;20966;-69
2023/10/29 06:39:35;;;;;;;5.40;2.40;;;9.30;21.00;;;;;;4999952;28;20463;-70
2023/10/29 06:42:03;;;;;;;6.57;2.90;;;9.40;20.80;;;;;;5005848;28;20487;-69
2023/10/29 06:44:30;;;;;;;5.60;2.80;;;9.60;20.10;;;;;;5000292;28;21015;-66
2023/10/29 06:46:57;;;;;;;6.10;3.17;;;9.70;19.80;;;;;;5005962;28;20523;-66
2023/10/29 06:49:23;;;;;;;5.03;2.30;;;9.70;20.20;;;;;;5008254;28;20467;-66
2023/10/29 06:51:50;;;;;;;5.87;1.90;;;9.70;19.60;;;;;;5009563;28;20520;-68
2023/10/29 06:54:17;;;;;;;4.90;2.43;;;9.70;19.10;;;;;;5007757;28;20483;-67
2023/10/29 06:56:44;;;;;;;6.63;2.27;;;9.80;19.10;;;;;;5007154;28;20484;-67
2023/10/29 06:59:12;;;;;;;4.40;2.10;;;9.80;19.00;;;;;;5007239;28;20945;-68
2023/10/29 07:01:38;;;;;;;4.57;1.90;;;9.90;18.90;;;;;;5007933;28;20487;-66
2023/10/29 07:04:06;;;;;;;4.60;2.20;;;10.00;18.50;;;;;;5009838;28;20455;-65
2023/10/29 07:06:33;;;;;;;4.10;1.70;;;10.10;19.40;;;;;;5008718;28;20464;-66
2023/10/29 07:09:01;;;;;;;5.10;1.93;;;10.70;18.60;;;;;;5008388;28;20471;-67
2023/10/29 07:11:29;;;;;;;6.20;2.50;;;11.60;17.40;;;;;;5009989;28;20459;-67
2023/10/29 07:13:55;;;;;;;4.50;1.70;;;12.20;15.50;;;;;;5008840;28;20465;-66
2023/10/29 07:16:23;;;;;;;9.03;2.30;;;12.70;14.80;;;;;;5007132;28;20460;-68
2023/10/29 07:18:50;;;;;;;4.10;2.07;;;13.20;13.30;;;;;;5008090;28;20481;-68
2023/10/29 07:21:17;;;;;;;5.13;2.40;;;13.60;12.10;;;;;;5008042;28;20483;-68
2023/10/29 07:23:44;;;;;;;4.20;1.90;;;13.90;10.80;;;;;;5007023;28;20488;-67
2023/10/29 07:26:10;;;;;;;5.90;2.03;;;14.00;8.80;;;;;;5000060;28;20493;-67
2023/10/29 07:28:37;;;;;;;5.47;2.30;;;14.10;9.10;;;;;;5004968;28;20478;-68
2023/10/29 07:31:04;;;;;;;4.00;1.67;;;14.20;9.70;;;;;;5007521;28;20478;-67
2023/10/29 07:33:32;;;;;;;4.30;1.60;;;14.40;9.60;;;;;;5010267;28;20853;-66
2023/10/29 07:36:02;;;;;;;4.70;1.63;;;14.80;9.30;;;;;;5009326;28;20480;-66
2023/10/29 07:38:29;;;;;;;4.77;2.00;;;15.30;7.20;;;;;;5010618;28;20464;-67
2023/10/29 07:40:55;;;;;;;5.40;2.00;;;15.80;7.20;;;;;;5022341;22;20429;-63
2023/10/29 07:43:22;;;;;;;4.70;1.67;;;16.20;6.20;;;;;;5024638;28;20530;-65
2023/10/29 07:45:51;;;;;;;4.60;1.67;;;16.50;6.30;;;;;;5029086;28;20482;-65
2023/10/29 07:48:18;;;;;;;3.80;1.30;;;16.80;5.10;;;;;;5028561;28;20463;-64
2023/10/29 07:50:51;;;;;;;6.37;1.83;;;17.30;3.90;;;;;;5025249;28;21566;-64
2023/10/29 07:53:18;;;;;;;5.07;1.80;;;17.40;2.10;;;;;;5024826;28;20459;-64
2023/10/29 07:55:45;;;;;;;4.60;2.33;;;17.20;1.70;;;;;;5031749;28;20904;-63
2023/10/29 07:58:12;;;;;;;4.60;1.80;;;17.00;1.80;;;;;;5024925;28;20473;-63
2023/10/29 08:00:39;;;;;;;6.57;2.60;;;16.70;2.40;;;;;;5027607;28;20970;-65
2023/10/29 08:03:06;;;;;;;5.10;2.07;;;16.50;3.00;;;;;;5026788;28;20475;-63
2023/10/29 08:05:32;;;;;;;4.50;1.83;;;16.20;3.00;;;;;;5028399;28;21218;-63
2023/10/29 08:08:01;;;;;;;4.50;1.60;;;16.00;3.70;;;;;;5026575;28;20470;-63
2023/10/29 08:10:28;;;;;;;9.57;4.33;;;15.90;4.50;;;;;;5020347;28;20472;-65
2023/10/29 08:12:54;;;;;;;17.27;7.73;;;15.70;4.70;;;;;;5021131;28;20451;-63
2023/10/29 08:15:21;;;;;;;8.00;3.83;;;15.50;4.80;;;;;;5025110;28;20486;-65
2023/10/29 08:17:48;;;;;;;4.60;2.07;;;15.40;5.10;;;;;;5020572;28;20471;-64
2023/10/29 08:20:15;;;;;;;4.67;2.47;;;15.20;5.90;;;;;;5032485;28;20451;-66
2023/10/29 08:22:41;;;;;;;4.97;2.50;;;15.00;6.30;;;;;;5024509;28;20474;-66
2023/10/29 08:25:11;;;;;;;4.73;2.37;;;14.90;6.50;;;;;;5035544;28;20493;-66
2023/10/29 08:27:37;;;;;;;4.50;1.83;;;14.80;7.00;;;;;;5022701;28;20468;-66
2023/10/29 08:30:05;;;;;;;4.57;2.03;;;14.80;7.10;;;;;;5021346;28;20474;-68
2023/10/29 08:32:33;;;;;;;5.70;1.63;;;14.80;7.40;;;;;;5017003;28;20506;-65
2023/10/29 08:35:00;;;;;;;4.60;1.83;;;14.80;7.60;;;;;;5017605;28;20482;-67
2023/10/29 08:37:27;;;;;;;5.30;1.80;;;15.00;7.70;;;;;;5027754;28;20462;-67
2023/10/29 08:39:57;;;;;;;4.60;1.73;;;15.20;7.10;;;;;;5021219;28;20477;-65
2023/10/29 08:42:25;;;;;;;4.23;2.07;;;15.40;6.90;;;;;;5020878;28;20463;-66
2023/10/29 08:44:56;;;;;;;8.83;2.90;;;15.60;6.90;;;;;;5026447;28;20478;-65
2023/10/29 08:47:22;;;;;;;4.63;2.00;;;15.90;7.10;;;;;;5022119;28;20467;-66
2023/10/29 08:49:49;;;;;;;7.53;3.17;;;16.20;6.70;;;;;;5021030;28;20955;-65
2023/10/29 08:52:17;;;;;;;5.20;2.40;;;16.80;5.40;;;;;;5020269;28;20471;-66
2023/10/29 08:54:44;;;;;;;5.70;2.33;;;16.90;4.70;;;;;;5021439;28;20487;-65
2023/10/29 08:57:11;;;;;;;6.63;2.10;;;17.20;5.10;;;;;;5020997;28;20466;-65
2023/10/29 08:59:40;;;;;;;5.60;2.13;;;18.40;3.50;;;;;;5022992;28;20491;-66
2023/10/29 09:02:08;;;;;;;4.63;2.10;;;20.40;1.20;;;;;;5021094;28;20522;-67
2023/10/29 09:04:37;;;;;;;5.40;1.80;;;22.40;1.00;;;;;;5023257;28;20493;-66
2023/10/29 09:07:04;;;;;;;4.57;2.20;;;23.80;1.00;;;;;;5023832;28;21035;-66
2023/10/29 09:09:31;;;;;;;4.37;2.03;;;24.40;1.00;;;;;;5025236;28;20450;-66
2023/10/29 09:11:58;;;;;;;4.90;2.10;;;24.10;1.00;;;;;;5022613;28;20821;-65
2023/10/29 09:14:24;;;;;;;6.10;2.80;;;23.50;1.00;;;;;;5020035;28;20495;-66
2023/10/29 09:16:52;;;;;;;5.30;2.00;;;22.80;1.00;;;;;;5024808;28;20484;-67
2023/10/29 09:19:20;;;;;;;5.60;2.23;;;22.20;1.00;;;;;;5021197;28;20462;-66
2023/10/29 09:21:47;;;;;;;4.93;1.73;;;21.90;1.00;;;;;;5022331;28;20459;-65
2023/10/29 09:24:15;;;;;;;8.60;2.20;;;22.10;1.00;;;;;;5026909;28;20483;-64
2023/10/29 09:26:41;;;;;;;8.53;2.03;;;22.50;1.00;;;;;;5022163;28;20494;-64
2023/10/29 09:29:09;;;;;;;3.77;1.40;;;22.90;1.00;;;;;;5025115;28;21011;-67
2023/10/29 09:31:35;;;;;;;4.83;2.20;;;23.40;1.00;;;;;;5023071;28;20561;-64
2023/10/29 09:34:04;;;;;;;6.40;3.10;;;23.80;1.00;;;;;;5021335;28;21151;-65
2023/10/29 09:36:31;;;;;;;4.40;2.33;;;24.50;1.00;;;;;;5026827;28;20994;-65
2023/10/29 09:38:57;;;;;;;4.77;1.90;;;25.20;1.00;;;;;;5026934;28;20473;-66
2023/10/29 09:41:24;;;;;;;5.40;2.40;;;25.90;1.00;;;;;;5019258;28;20466;-64
2023/10/29 09:43:53;;;;;;;4.87;1.90;;;27.10;1.00;;;;;;5017423;28;20505;-64
2023/10/29 09:46:21;;;;;;;4.40;1.70;;;28.60;1.00;;;;;;5023756;28;20463;-64
2023/10/29 09:48:49;;;;;;;3.90;1.70;;;29.40;1.00;;;;;;5023830;28;20474;-64
2023/10/29 09:51:17;;;;;;;4.00;1.70;;;29.30;1.00;;;;;;5025977;28;20978;-64
2023/10/29 09:53:45;;;;;;;5.93;2.00;;;29.90;1.00;;;;;;5024754;28;20839;-64
2023/10/29 09:56:12;;;;;;;5.37;1.80;;;30.10;1.00;;;;;;5029387;28;20486;-64
2023/10/29 09:58:39;;;;;;;6.10;1.60;;;29.60;1.00;;;;;;5033532;28;20535;-65
2023/10/29 10:01:06;;;;;;;4.53;2.17;;;29.40;1.00;;;;;;5024386;28;20485;-65
2023/10/29 10:03:33;;;;;;;9.93;1.77;;;29.40;1.00;;;;;;5027592;28;20513;-65
2023/10/29 10:06:00;;;;;;;7.70;2.43;;;28.50;1.00;;;;;;5026170;28;20505;-65
2023/10/29 10:08:30;;;;;;;6.70;1.57;;;27.30;1.00;;;;;;5032531;28;20525;-65
2023/10/29 10:10:58;;;;;;;4.53;1.80;;;26.90;1.00;;;;;;5028959;28;20459;-65
2023/10/29 10:13:36;;;;;;;4.17;1.83;;;27.10;1.00;;;;;;5030978;28;20469;-65
2023/10/29 10:16:07;;;;;;;4.60;1.97;;;27.30;1.00;;;;;;5035118;28;20482;-65
2023/10/29 10:18:51;;;;;;;5.00;2.20;;;26.80;1.00;;;;;;5030311;28;20542;-65
2023/10/29 10:21:20;;;;;;;4.83;2.20;;;26.40;1.00;;;;;;5040227;28;20908;-65
2023/10/29 10:23:49;;;;;;;4.03;2.10;;;25.80;1.00;;;;;;5033264;28;20543;-65
2023/10/29 10:26:18;;;;;;;6.67;2.90;;;25.10;1.00;;;;;;5039833;28;20461;-65
2023/10/29 10:28:54;;;;;;;4.90;2.30;;;24.40;1.00;;;;;;5029425;28;20561;-65
2023/10/29 10:31:21;;;;;;;7.40;2.60;;;23.90;1.00;;;;;;5032502;28;20469;-65
2023/10/29 10:33:49;;;;;;;4.80;2.20;;;23.40;1.00;;;;;;5027637;28;20464;-65
2023/10/29 10:36:30;;;;;;;5.27;1.90;;;23.10;1.00;;;;;;5029729;28;20554;-65
2023/10/29 10:38:58;;;;;;;3.80;1.60;;;22.90;1.00;;;;;;5030584;28;20458;-65
2023/10/29 10:41:25;;;;;;;5.30;2.53;;;22.70;1.00;;;;;;5031274;28;20564;-64
2023/10/29 10:44:03;;;;;;;5.00;1.90;;;22.50;1.00;;;;;;5028306;28;20482;-65
2023/10/29 10:46:33;;;;;;;5.53;1.83;;;22.20;1.00;;;;;;5034888;28;20469;-65
2023/10/29 10:49:00;;;;;;;4.03;1.70;;;22.00;1.00;;;;;;5037665;28;20458;-65
2023/10/29 10:51:28;;;;;;;5.40;1.70;;;22.00;1.00;;;;;;5030329;28;20466;-65
2023/10/29 10:53:55;;;;;;;6.60;1.40;;;21.90;1.00;;;;;;5029240;28;20940;-65
2023/10/29 10:56:24;;;;;;;4.70;1.67;;;21.90;1.00;;;;;;5031970;28;20466;-65
2023/10/29 10:58:52;;;;;;;5.20;2.03;;;22.00;1.00;;;;;;5034834;28;20462;-65
2023/10/29 11:01:20;;;;;;;3.70;1.30;;;22.00;1.00;;;;;;5016437;28;20473;-65
2023/10/29 11:03:48;;;;;;;5.67;1.57;;;21.90;1.00;;;;;;5029882;28;20552;-64
2023/10/29 11:06:15;;;;;;;4.37;1.60;;;21.70;1.00;;;;;;5037578;28;20469;-65
2023/10/29 11:08:42;;;;;;;3.97;1.37;;;21.50;1.00;;;;;;5031409;28;20882;-65
2023/10/29 11:11:11;;;;;;;7.67;1.50;;;21.40;1.00;;;;;;5023630;28;20517;-65
2023/10/29 11:13:39;;;;;;;4.83;1.30;;;21.40;1.00;;;;;;5027074;28;20467;-64
2023/10/29 11:16:21;;;;;;;3.53;1.10;;;21.50;1.00;;;;;;5029313;28;20505;-65
2023/10/29 11:18:47;;;;;;;3.87;1.17;;;21.70;1.00;;;;;;5029593;28;20481;-65
2023/10/29 11:21:31;;;;;;;6.20;1.57;;;21.80;1.00;;;;;;5027804;28;20458;-65
2023/10/29 11:24:17;;;;;;;3.80;1.30;;;21.80;1.00;;;;;;5027759;28;20506;-65
2023/10/29 11:26:43;;;;;;;5.93;1.50;;;21.70;1.00;;;;;;5027926;28;20517;-66
2023/10/29 11:29:44;;;;;;;5.37;1.30;;;21.60;1.00;;;;;;5029815;28;20462;-65
2023/10/29 11:32:24;;;;;;;3.40;1.00;;;21.40;1.00;;;;;;5026299;28;20486;-64
2023/10/29 11:35:19;;;;;;;4.43;1.53;;;21.30;1.00;;;;;;5031760;28;20482;-64
2023/10/29 11:37:47;;;;;;;5.50;1.20;;;21.10;1.00;;;;;;5028482;28;20873;-64
2023/10/29 11:40:34;;;;;;;3.87;1.27;;;20.90;1.00;;;;;;5028048;28;20525;-64
2023/10/29 11:43:16;;;;;;;6.23;1.50;;;20.80;1.00;;;;;;5020754;28;20958;-64
2023/10/29 11:45:53;;;;;;;5.67;1.33;;;20.80;1.00;;;;;;5024684;28;20494;-64
2023/10/29 11:48:20;;;;;;;3.40;1.10;;;20.90;1.00;;;;;;5027365;28;20458;-64
2023/10/29 11:51:18;;;;;;;3.70;1.10;;;21.10;1.00;;;;;;5027106;28;20839;-64
2023/10/29 11:53:45;;;;;;;4.67;1.33;;;21.50;1.00;;;;;;5027603;28;20812;-64
2023/10/29 11:56:13;;;;;;;3.90;1.47;;;22.00;1.00;;;;;;5027728;28;20512;-64
2023/10/29 11:58:40;;;;;;;3.93;1.30;;;22.40;1.00;;;;;;5027478;28;20467;-65
2023/10/29 12:01:08;;;;;;;5.13;1.60;;;22.80;1.00;;;;;;5025972;28;20841;-65
2023/10/29 12:03:35;;;;;;;4.53;1.40;;;23.30;1.00;;;;;;5027604;28;20485;-65
2023/10/29 12:06:02;;;;;;;3.90;1.20;;;23.80;1.00;;;;;;5027459;28;20490;-65
2023/10/29 12:08:32;;;;;;;7.50;1.30;;;24.30;1.00;;;;;;5028660;28;20959;-65
2023/10/29 12:10:59;;;;;;;4.70;1.20;;;24.70;1.00;;;;;;5030021;28;20471;-65
2023/10/29 12:13:39;;;;;;;3.80;1.53;;;25.00;1.00;;;;;;5026113;28;20467;-65
2023/10/29 12:16:08;;;;;;;4.43;1.63;;;25.30;1.00;;;;;;5026570;28;20864;-65
2023/10/29 12:18:36;;;;;;;4.33;1.10;;;25.70;1.00;;;;;;5019406;28;20462;-66
2023/10/29 12:21:07;;;;;;;4.33;1.10;;;25.90;1.00;;;;;;5026852;28;20554;-66
2023/10/29 12:23:35;;;;;;;3.70;1.00;;;25.90;1.00;;;;;;5026775;28;20467;-66
2023/10/29 12:26:04;;;;;;;5.00;1.43;;;25.40;1.00;;;;;;5028739;28;20486;-65
2023/10/29 12:28:32;;;;;;;4.40;1.23;;;24.90;1.00;;;;;;5027858;28;21113;-65
2023/10/29 12:30:59;;;;;;;5.40;1.50;;;24.50;1.00;;;;;;5028121;28;20475;-65
2023/10/29 12:33:29;;;;;;;6.73;1.70;;;24.70;1.00;;;;;;5028817;28;20463;-65
2023/10/29 12:35:58;;;;;;;4.27;1.53;;;24.90;1.00;;;;;;5028988;28;20818;-65
2023/10/29 12:38:25;;;;;;;4.87;1.53;;;24.80;1.00;;;;;;5024856;28;20465;-65
2023/10/29 12:41:11;;;;;;;4.80;1.03;;;24.50;1.00;;;;;;5026808;28;20451;-65
2023/10/29 12:43:39;;;;;;;4.20;1.33;;;24.00;1.00;;;;;;5028466;28;20473;-64
2023/10/29 12:46:07;;;;;;;7.60;1.57;;;23.60;1.00;;;;;;5029911;28;20562;-64
2023/10/29 12:48:36;;;;;;;4.33;1.20;;;23.30;1.00;;;;;;5031336;28;20473;-64
2023/10/29 12:51:04;;;;;;;5.13;1.13;;;23.10;1.00;;;;;;5025804;28;20489;-64
2023/10/29 12:53:32;;;;;;;3.67;1.10;;;22.90;1.00;;;;;;5027472;28;20463;-64
2023/10/29 12:56:00;;;;;;;4.40;1.23;;;22.70;1.00;;;;;;5030374;28;20474;-65
2023/10/29 12:58:28;;;;;;;3.73;1.50;;;22.40;1.00;;;;;;5029174;28;20451;-64
2023/10/29 13:00:57;;;;;;;4.00;1.10;;;22.20;1.00;;;;;;5031235;28;21016;-63
2023/10/29 13:03:24;;;;;;;3.60;1.13;;;22.00;1.00;;;;;;5027871;28;21006;-66